Time;durP1;ratioP1;P1;durP2;ratioP2;P2;SDS_P1;SDS_P2;PMS_P1;PMS_P2;Temp;Humidity;BMP_temperature;BMP_pressure;BME280_temperature;BME280_humidity;BME280_pressure;Samples;Min_cycle;Max_cycle;Signal;HPM_P1;HPM_P2
2022/06/06 00:01:46;;;;;;;10.50;9.40;;;;;;;15.69;96.66;101195.22;5075764;28;20421;-44
2022/06/06 00:04:15;;;;;;;16.07;10.63;;;;;;;15.68;96.99;101190.91;5075790;28;20917;-45
2022/06/06 00:06:43;;;;;;;12.63;11.43;;;;;;;15.65;97.08;101185.97;5075626;28;20454;-45
2022/06/06 00:09:14;;;;;;;12.30;10.97;;;;;;;15.59;97.30;101168.03;5075143;28;20462;-43
2022/06/06 00:11:42;;;;;;;16.20;11.77;;;;;;;15.53;97.29;101169.69;5075290;28;20458;-46
2022/06/06 00:14:13;;;;;;;15.47;12.50;;;;;;;15.47;97.20;101155.25;5075162;28;20484;-45
2022/06/06 00:16:42;;;;;;;14.03;12.97;;;;;;;15.41;96.64;101153.41;5075532;28;20485;-44
2022/06/06 00:19:10;;;;;;;13.27;12.03;;;;;;;15.39;96.31;101160.88;5074912;28;20462;-46
2022/06/06 00:21:39;;;;;;;14.13;12.93;;;;;;;15.35;96.15;101164.25;5075109;28;20434;-45
2022/06/06 00:24:08;;;;;;;14.20;13.10;;;;;;;15.29;95.48;101154.34;5075265;28;20525;-47
2022/06/06 00:26:36;;;;;;;14.50;13.10;;;;;;;15.28;94.86;101145.47;5075034;28;20458;-44
2022/06/06 00:29:04;;;;;;;13.73;12.40;;;;;;;15.24;94.91;101141.56;5074697;28;20488;-44
2022/06/06 00:37:07;;;;;;;18.10;16.60;;;;;;;15.11;92.71;101130.09;5055334;28;20487;-44
2022/06/06 00:39:36;;;;;;;17.77;16.37;;;;;;;15.12;92.47;101129.84;5054951;28;20469;-45
2022/06/06 00:42:13;;;;;;;18.00;16.40;;;;;;;15.06;91.12;101124.53;5055343;28;20435;-47
2022/06/06 00:44:42;;;;;;;30.30;28.20;;;;;;;14.99;88.92;101104.97;5056346;28;20522;-47
2022/06/06 00:47:17;;;;;;;32.20;30.10;;;;;;;14.96;87.23;101120.44;5055939;28;20462;-45
2022/06/06 00:49:50;;;;;;;35.37;32.80;;;;;;;14.95;85.15;101104.56;5057003;28;20446;-47
2022/06/06 00:52:21;;;;;;;34.40;32.30;;;;;;;14.99;83.53;101102.28;5058346;28;20789;-46
2022/06/06 00:54:51;;;;;;;35.00;32.80;;;;;;;14.96;83.44;101104.34;5058500;28;20516;-47
2022/06/06 00:57:24;;;;;;;34.53;32.03;;;;;;;14.90;81.75;101091.78;5058924;28;20443;-50
2022/06/06 00:59:54;;;;;;;36.57;34.03;;;;;;;14.87;79.52;101089.53;5060952;28;20430;-47
2022/06/06 01:02:22;;;;;;;37.93;35.23;;;;;;;14.88;77.69;101084.97;5061450;28;20530;-48
2022/06/06 01:04:52;;;;;;;39.60;36.93;;;;;;;14.86;76.54;101070.94;5063120;28;20449;-50
2022/06/06 01:07:21;;;;;;;38.33;35.80;;;;;;;14.83;75.39;101072.22;5060909;28;20812;-48
2022/06/06 01:09:49;;;;;;;38.80;35.97;;;;;;;14.81;74.44;101066.22;5061323;28;20868;-48
2022/06/06 01:12:20;;;;;;;37.67;35.63;;;;;;;14.79;74.56;101052.19;5060649;28;20447;-45
2022/06/06 01:14:54;;;;;;;38.57;35.97;;;;;;;14.78;73.03;101044.38;5060559;28;20467;-50
2022/06/06 01:17:32;;;;;;;38.70;36.37;;;;;;;14.76;72.45;101039.19;5061774;28;20510;-47
2022/06/06 01:20:15;;;;;;;39.10;36.53;;;;;;;14.71;71.47;101041.72;5041653;28;20454;-45
2022/06/06 01:23:23;;;;;;;39.93;36.73;;;;;;;14.69;69.42;101030.38;5040070;28;20798;-48
2022/06/06 01:26:16;;;;;;;39.10;36.80;;;;;;;14.66;66.31;101036.19;5038792;28;20463;-50
2022/06/06 01:28:52;;;;;;;39.13;36.70;;;;;;;14.63;63.51;101028.56;5037413;28;20464;-47
2022/06/06 01:31:23;;;;;;;39.83;37.33;;;;;;;14.61;62.54;101021.75;5040956;28;20454;-47
2022/06/06 01:33:55;;;;;;;41.17;37.93;;;;;;;14.57;60.57;101029.44;5058119;28;20471;-49
2022/06/06 01:36:26;;;;;;;41.00;37.87;;;;;;;14.55;58.87;101039.53;5058399;28;20443;-47
2022/06/06 01:38:55;;;;;;;40.97;38.47;;;;;;;14.55;57.44;101031.50;5057814;28;20471;-48
2022/06/06 01:41:32;;;;;;;40.20;37.67;;;;;;;14.61;56.63;101040.53;5057092;28;20442;-47
2022/06/06 01:44:08;;;;;;;38.33;36.13;;;;;;;14.60;56.79;101047.78;5058591;28;20777;-47
2022/06/06 01:46:37;;;;;;;39.43;36.97;;;;;;;14.61;57.07;101043.22;5058587;28;20462;-45
2022/06/06 01:49:10;;;;;;;37.57;35.03;;;;;;;14.58;56.52;101033.75;5058526;28;20881;-47
2022/06/06 01:51:38;;;;;;;36.37;33.70;;;;;;;14.57;55.96;101032.13;5058559;28;20431;-46
2022/06/06 01:54:06;;;;;;;35.10;32.73;;;;;;;14.54;54.88;101037.09;5058953;28;20502;-49
2022/06/06 01:56:38;;;;;;;34.60;32.47;;;;;;;14.56;54.65;101035.00;5058934;28;20537;-46
2022/06/06 01:59:07;;;;;;;30.60;28.60;;;;;;;14.56;55.08;101033.16;5058158;28;21066;-46
2022/06/06 02:01:35;;;;;;;29.10;27.10;;;;;;;14.52;53.71;101023.88;5058371;28;20944;-46
2022/06/06 02:04:03;;;;;;;26.60;24.60;;;;;;;14.55;53.08;101025.28;5058043;28;20427;-46
2022/06/06 02:06:30;;;;;;;25.20;23.60;;;;;;;14.52;53.23;101020.34;5057402;28;20455;-45
2022/06/06 02:08:58;;;;;;;26.53;24.73;;;;;;;14.52;52.74;101028.41;5056991;28;20979;-46
2022/06/06 02:11:28;;;;;;;26.60;24.80;;;;;;;14.53;50.93;101013.97;5057992;28;20971;-45
2022/06/06 02:13:55;;;;;;;25.87;23.87;;;;;;;14.51;50.71;101014.19;5058075;28;21010;-45
2022/06/06 02:16:25;;;;;;;26.93;24.70;;;;;;;14.53;49.82;101013.97;5057776;28;20821;-49
2022/06/06 02:18:53;;;;;;;24.17;22.10;;;;;;;14.49;50.81;101018.09;5057341;28;20455;-49
2022/06/06 02:21:20;;;;;;;24.27;22.37;;;;;;;14.49;49.96;101000.16;5057835;28;20982;-47
2022/06/06 02:23:48;;;;;;;22.67;20.70;;;;;;;14.48;49.63;101001.19;5058331;28;20534;-46
2022/06/06 02:26:16;;;;;;;25.13;22.83;;;;;;;14.45;49.04;101001.63;5058260;28;20451;-49
2022/06/06 02:28:44;;;;;;;24.47;22.60;;;;;;;14.39;49.01;100994.44;5057168;28;20467;-48
2022/06/06 02:31:12;;;;;;;22.13;20.70;;;;;;;14.40;48.09;100998.75;5054726;28;20436;-47
2022/06/06 02:33:41;;;;;;;19.90;18.20;;;;;;;14.40;46.98;100988.03;5054467;28;20435;-47
2022/06/06 02:36:09;;;;;;;20.00;18.27;;;;;;;14.38;47.11;100985.56;5058031;28;20452;-46
2022/06/06 02:38:37;;;;;;;18.83;17.27;;;;;;;14.40;45.69;100975.44;5057583;28;20458;-47
2022/06/06 02:41:10;;;;;;;19.03;17.03;;;;;;;14.36;46.66;100976.91;5057508;28;20431;-45
2022/06/06 02:43:42;;;;;;;18.80;17.23;;;;;;;14.38;45.60;100966.78;5057236;28;20439;-49
2022/06/06 02:46:13;;;;;;;21.37;17.60;;;;;;;14.33;44.70;100963.09;5057438;28;21059;-47
2022/06/06 02:48:42;;;;;;;19.60;17.57;;;;;;;14.34;43.79;100951.31;5057987;28;20474;-49
2022/06/06 02:51:09;;;;;;;19.00;16.80;;;;;;;14.32;42.33;100951.56;5057132;28;20446;-50
2022/06/06 02:53:37;;;;;;;20.20;17.03;;;;;;;14.36;41.39;100933.16;5058273;28;20473;-50
2022/06/06 02:56:06;;;;;;;19.10;17.33;;;;;;;14.39;40.93;100930.06;5058146;28;21054;-48
2022/06/06 02:58:34;;;;;;;18.73;15.73;;;;;;;14.37;40.65;100924.06;5057463;28;20459;-47
2022/06/06 03:01:06;;;;;;;16.40;14.90;;;;;;;14.35;41.43;100907.38;5058255;28;20435;-48
2022/06/06 03:03:35;;;;;;;16.87;14.97;;;;;;;14.34;40.70;100901.19;5058304;28;20443;-46
2022/06/06 03:06:19;;;;;;;17.93;14.73;;;;;;;14.33;39.13;100888.00;5058857;28;20458;-45
2022/06/06 03:09:01;;;;;;;16.33;14.73;;;;;;;14.35;38.91;100896.63;5057928;28;20459;-46
2022/06/06 03:11:43;;;;;;;18.40;15.40;;;;;;;14.35;39.54;100908.19;5058137;28;20431;-48
2022/06/06 03:14:31;;;;;;;14.63;13.30;;;;;;;14.35;39.96;100893.94;5056893;28;20477;-47
2022/06/06 03:23:10;;;;;;;13.90;12.60;;;;;;;14.35;40.14;100907.38;5058179;28;20435;-51
2022/06/06 03:25:45;;;;;;;14.20;13.00;;;;;;;14.33;40.30;100894.19;5056871;28;20434;-48
2022/06/06 03:28:20;;;;;;;13.57;12.23;;;;;;;14.35;41.14;100907.38;5056813;28;20473;-50
2022/06/06 03:30:57;;;;;;;16.00;13.27;;;;;;;14.37;40.33;100900.75;5057115;28;20438;-46
2022/06/06 03:33:34;;;;;;;14.57;12.80;;;;;;;14.37;39.94;100899.91;5057191;28;20441;-46
2022/06/06 03:36:10;;;;;;;14.77;13.10;;;;;;;14.39;40.64;100895.97;5057227;28;20481;-44
2022/06/06 03:38:45;;;;;;;12.50;11.40;;;;;;;14.43;40.57;100898.22;5056862;28;20458;-47
2022/06/06 03:41:19;;;;;;;16.13;14.33;;;;;;;14.40;40.56;100896.78;5057543;28;20938;-44
2022/06/06 03:43:56;;;;;;;21.13;17.87;;;;;;;14.40;41.65;100889.56;5057239;28;20453;-47
2022/06/06 03:46:34;;;;;;;24.30;21.90;;;;;;;14.44;40.77;100886.47;5057542;28;20483;-47
2022/06/06 03:49:15;;;;;;;22.93;20.67;;;;;;;14.46;40.72;100893.25;5056885;28;21014;-46
2022/06/06 03:51:52;;;;;;;24.17;22.37;;;;;;;14.44;42.79;100891.81;5037713;28;20428;-48
2022/06/06 03:54:32;;;;;;;22.67;20.73;;;;;;;14.48;41.28;100901.91;5037132;28;20445;-50
2022/06/06 03:57:13;;;;;;;23.77;21.70;;;;;;;14.56;40.57;100895.44;5037425;28;20458;-48
2022/06/06 03:59:42;;;;;;;22.90;20.60;;;;;;;14.53;43.44;100902.06;5037430;28;20454;-45
2022/06/06 04:02:17;;;;;;;20.63;19.23;;;;;;;14.58;43.31;100901.41;5036690;28;20438;-45
2022/06/06 04:04:45;;;;;;;20.93;19.07;;;;;;;14.60;44.51;100893.97;5037797;28;20432;-47
2022/06/06 04:07:13;;;;;;;19.27;17.67;;;;;;;14.64;44.04;100896.00;5036805;28;20458;-47
2022/06/06 04:09:42;;;;;;;21.30;19.20;;;;;;;14.65;44.66;100888.75;5035499;28;20443;-45
2022/06/06 04:12:24;;;;;;;19.90;18.07;;;;;;;14.71;44.00;100895.94;5037318;28;20798;-47
2022/06/06 04:15:02;;;;;;;19.60;17.67;;;;;;;14.69;46.99;100893.50;5037574;28;20471;-50
2022/06/06 04:17:39;;;;;;;21.30;19.70;;;;;;;14.71;47.16;100886.03;5035903;28;20454;-45
2022/06/06 04:20:24;;;;;;;20.20;18.60;;;;;;;14.75;47.14;100891.78;5037358;28;20427;-50
2022/06/06 04:23:25;;;;;;;20.13;18.60;;;;;;;14.78;48.26;100877.91;5037577;28;20442;-48
2022/06/06 04:26:06;;;;;;;21.40;18.97;;;;;;;14.78;50.17;100880.59;5038343;28;20428;-47
2022/06/06 04:28:42;;;;;;;20.33;18.80;;;;;;;14.79;52.25;100874.19;5035673;28;20543;-49
2022/06/06 04:31:14;;;;;;;18.40;16.90;;;;;;;14.84;50.01;100880.53;5036695;28;20438;-48
2022/06/06 04:33:47;;;;;;;19.90;18.07;;;;;;;14.94;47.01;100880.03;5037303;28;20432;-47
2022/06/06 04:36:20;;;;;;;19.67;18.17;;;;;;;14.97;48.63;100876.91;5038386;28;20480;-50
2022/06/06 04:38:55;;;;;;;19.87;18.37;;;;;;;15.00;51.32;100871.09;5039328;28;20467;-49
2022/06/06 04:41:30;;;;;;;20.07;18.10;;;;;;;15.06;50.72;100869.38;5041058;28;20432;-47
2022/06/06 04:44:06;;;;;;;21.90;20.30;;;;;;;15.16;47.71;100880.44;5041357;28;20431;-47
2022/06/06 04:46:42;;;;;;;23.60;21.60;;;;;;;15.24;47.02;100870.19;5040375;28;20456;-48
2022/06/06 04:49:11;;;;;;;23.33;21.30;;;;;;;15.31;47.71;100870.13;5041185;28;20455;-47
2022/06/06 04:51:41;;;;;;;22.90;21.07;;;;;;;15.30;51.76;100877.38;5041007;28;20432;-45
2022/06/06 04:54:14;;;;;;;23.27;20.97;;;;;;;15.34;52.44;100869.69;5041233;28;20439;-48
2022/06/06 04:56:45;;;;;;;22.73;20.93;;;;;;;15.37;52.81;100874.63;5041391;28;20574;-49
2022/06/06 04:59:15;;;;;;;23.73;21.50;;;;;;;15.38;53.58;100874.38;5040219;28;21173;-46
2022/06/06 05:01:44;;;;;;;24.53;22.63;;;;;;;15.42;51.48;100872.06;5040462;28;20507;-49
2022/06/06 05:04:11;;;;;;;23.33;21.37;;;;;;;15.45;51.77;100871.63;5038371;28;20482;-46
2022/06/06 05:06:58;;;;;;;25.73;23.60;;;;;;;15.49;50.70;100873.69;5041769;28;20598;-49
2022/06/06 05:09:44;;;;;;;22.97;21.27;;;;;;;15.54;48.39;100867.59;5030394;28;20993;-47
2022/06/06 05:12:27;;;;;;;20.93;19.17;;;;;;;15.63;46.22;100878.88;5031729;28;20443;-51
2022/06/06 05:15:13;;;;;;;21.83;20.07;;;;;;;15.69;45.79;100883.34;5041482;28;20428;-47
2022/06/06 05:17:59;;;;;;;18.67;17.17;;;;;;;15.73;45.67;100884.53;5041902;28;20468;-50
2022/06/06 05:20:47;;;;;;;17.20;15.90;;;;;;;15.79;44.99;100886.31;5042162;28;20447;-50
2022/06/06 05:23:37;;;;;;;17.97;16.60;;;;;;;15.81;46.15;100893.09;5032749;28;20433;-47
2022/06/06 05:26:18;;;;;;;15.00;13.90;;;;;;;15.82;47.38;100897.44;5040697;28;20456;-48
2022/06/06 05:29:03;;;;;;;14.60;13.50;;;;;;;15.86;46.83;100895.94;5035197;28;20478;-45
2022/06/06 05:31:44;;;;;;;12.90;12.00;;;;;;;15.93;45.90;100899.38;5033449;28;20436;-48
2022/06/06 05:34:16;;;;;;;10.50;9.70;;;;;;;15.98;45.64;100901.34;5032294;28;20432;-47
2022/06/06 05:36:59;;;;;;;8.37;7.87;;;;;;;16.04;46.55;100914.72;5033335;28;21119;-48
2022/06/06 05:39:48;;;;;;;7.30;6.90;;;;;;;16.12;47.32;100907.38;5032739;28;20457;-45
2022/06/06 05:42:28;;;;;;;7.60;7.10;;;;;;;16.22;45.62;100910.34;5033049;28;20448;-46
2022/06/06 05:45:09;;;;;;;5.70;5.30;;;;;;;16.25;49.99;100909.88;5032355;28;20441;-45
2022/06/06 05:47:44;;;;;;;5.13;4.90;;;;;;;16.32;50.48;100916.81;5032572;28;20471;-49
2022/06/06 05:50:27;;;;;;;4.27;3.97;;;;;;;16.40;50.33;100915.66;5031740;28;20872;-47
2022/06/06 05:53:17;;;;;;;4.53;4.33;;;;;;;16.47;52.69;100925.28;5033340;28;20447;-48
2022/06/06 05:56:00;;;;;;;4.20;4.00;;;;;;;16.35;65.13;100921.72;5032913;28;20511;-45
2022/06/06 05:58:43;;;;;;;3.80;3.70;;;;;;;16.31;67.30;100922.41;5032887;28;20467;-44
2022/06/06 06:01:26;;;;;;;3.73;3.53;;;;;;;16.26;69.09;100933.03;5032182;28;20428;-45
2022/06/06 06:04:16;;;;;;;4.00;3.80;;;;;;;16.22;69.02;100931.88;5034817;28;20432;-48
2022/06/06 06:06:53;;;;;;;4.40;3.70;;;;;;;16.20;67.54;100931.28;5032960;28;20538;-45
2022/06/06 06:09:42;;;;;;;4.10;3.90;;;;;;;16.18;66.35;100939.59;5031970;28;20471;-47
2022/06/06 06:12:25;;;;;;;4.10;3.93;;;;;;;16.15;68.13;100948.13;5032663;28;20424;-47
2022/06/06 06:15:04;;;;;;;4.27;4.07;;;;;;;16.14;67.23;100949.16;5033368;28;21092;-46
2022/06/06 06:17:33;;;;;;;3.90;3.73;;;;;;;16.05;71.83;100954.03;5032719;28;20452;-47
2022/06/06 06:20:10;;;;;;;4.33;4.07;;;;;;;16.01;74.05;100955.53;5032958;28;20428;-45
2022/06/06 06:22:41;;;;;;;3.97;3.77;;;;;;;16.02;71.48;100962.56;5032535;28;20515;-48
2022/06/06 06:25:10;;;;;;;4.27;4.07;;;;;;;16.03;72.31;100958.81;5033413;28;20435;-45
2022/06/06 06:27:39;;;;;;;3.37;3.27;;;;;;;16.03;74.82;100961.53;5032173;28;20560;-45
2022/06/06 06:30:09;;;;;;;4.03;3.83;;;;;;;16.16;71.07;100971.25;5032162;28;20852;-46
2022/06/06 06:33:07;;;;;;;3.40;3.30;;;;;;;16.32;69.90;100973.31;5026367;28;20809;-47
2022/06/06 06:35:44;;;;;;;3.40;3.20;;;;;;;16.54;73.20;100962.91;5032174;28;20428;-46
2022/06/06 06:38:34;;;;;;;2.47;2.37;;;;;;;17.29;70.97;100968.50;5031995;28;20459;-48
2022/06/06 06:41:11;;;;;;;2.73;2.63;;;;;;;18.03;57.74;100963.13;5031738;28;20439;-48
2022/06/06 06:43:53;;;;;;;2.67;2.47;;;;;;;18.90;84.92;100970.91;5031876;28;20435;-46
2022/06/06 06:46:27;;;;;;;2.40;2.30;;;;;;;19.22;100.00;100961.13;5039486;23;20523;-49
2022/06/06 06:49:10;;;;;;;2.20;2.10;;;;;;;19.37;100.00;100974.88;5017102;28;20468;-47
2022/06/06 06:51:45;;;;;;;2.40;2.30;;;;;;;19.53;100.00;100979.47;5011248;28;20425;-45
2022/06/06 06:54:39;;;;;;;2.30;2.20;;;;;;;19.51;100.00;100976.19;5012127;28;20447;-48
2022/06/06 06:57:20;;;;;;;2.63;2.53;;;;;;;19.29;98.77;100969.91;5011891;28;20476;-48
2022/06/06 07:00:07;;;;;;;2.27;2.17;;;;;;;19.23;99.99;100973.59;5011692;28;21019;-45
2022/06/06 07:08:47;;;;;;;2.53;2.43;;;;;;;18.91;100.00;100986.88;5010441;28;20465;-45
2022/06/06 07:11:33;;;;;;;2.73;2.63;;;;;;;18.73;100.00;100989.78;5010732;28;20433;-48
2022/06/06 07:14:05;;;;;;;2.30;2.20;;;;;;;18.80;100.00;101009.38;5011206;28;20432;-50
2022/06/06 07:16:35;;;;;;;2.40;2.30;;;;;;;18.72;100.00;101002.50;5011035;28;20483;-45
2022/06/06 07:19:08;;;;;;;3.00;2.80;;;;;;;18.67;100.00;100998.88;5010140;28;20461;-47
2022/06/06 07:21:39;;;;;;;3.93;2.87;;;;;;;18.58;100.00;101003.84;5010999;28;20791;-44
2022/06/06 07:24:10;;;;;;;4.30;4.10;;;;;;;18.31;100.00;100989.28;5010543;28;20439;-47
2022/06/06 07:26:41;;;;;;;4.13;3.93;;;;;;;18.14;100.00;100994.63;5010644;28;20968;-49
2022/06/06 07:29:11;;;;;;;5.33;5.00;;;;;;;17.90;100.00;101006.56;5009960;28;20461;-47
2022/06/06 07:32:02;;;;;;;5.40;5.10;;;;;;;17.82;100.00;101009.63;5010028;28;20517;-45
2022/06/06 07:34:58;;;;;;;6.00;5.50;;;;;;;17.83;100.00;101015.84;5006047;28;20429;-44
2022/06/06 07:37:47;;;;;;;6.17;5.77;;;;;;;17.83;100.00;101010.44;5009746;28;20487;-45
2022/06/06 07:40:25;;;;;;;6.83;6.23;;;;;;;17.97;100.00;101026.13;5010283;28;20432;-45
2022/06/06 07:43:06;;;;;;;6.30;5.90;;;;;;;17.95;100.00;101028.22;5011098;28;20949;-47
2022/06/06 07:45:42;;;;;;;5.87;5.47;;;;;;;18.09;100.00;101026.94;5010922;28;20750;-44
2022/06/06 07:48:29;;;;;;;6.93;6.40;;;;;;;18.14;100.00;101021.63;5010305;28;20985;-44
2022/06/06 07:51:06;;;;;;;5.40;5.10;;;;;;;18.21;100.00;101035.81;5009985;28;20439;-47
2022/06/06 07:53:45;;;;;;;6.00;5.57;;;;;;;18.38;100.00;101032.34;5010546;28;20440;-48
2022/06/06 07:56:19;;;;;;;6.43;6.03;;;;;;;18.53;100.00;101040.75;5010460;28;20456;-47
2022/06/06 07:58:56;;;;;;;6.10;5.70;;;;;;;18.60;100.00;101036.88;5015832;28;20468;-45
2022/06/06 08:01:33;;;;;;;6.50;6.00;;;;;;;18.68;100.00;101039.16;5010177;28;20439;-47
2022/06/06 08:04:15;;;;;;;6.17;5.57;;;;;;;18.79;100.00;101045.56;5010814;28;20539;-47
2022/06/06 08:06:51;;;;;;;10.70;7.00;;;;;;;18.90;100.00;101046.56;5010786;28;20451;-48
2022/06/06 08:09:40;;;;;;;6.77;6.10;;;;;;;18.94;99.49;101048.53;5009618;28;20465;-45
2022/06/06 08:12:36;;;;;;;6.00;5.60;;;;;;;19.23;99.79;101049.31;5010250;28;20436;-44
2022/06/06 08:15:17;;;;;;;7.07;6.47;;;;;;;19.50;100.00;101041.38;5014325;28;20420;-46
2022/06/06 08:18:05;;;;;;;7.53;6.00;;;;;;;19.70;98.54;101044.38;5013520;28;21170;-47
2022/06/06 08:20:40;;;;;;;6.73;5.50;;;;;;;19.78;97.92;101033.94;5014470;28;20433;-47
2022/06/06 08:23:10;;;;;;;6.60;6.10;;;;;;;19.87;94.63;101031.59;5014698;28;20447;-50
2022/06/06 08:25:40;;;;;;;5.57;5.27;;;;;;;19.93;92.16;101041.44;5014652;28;20452;-45
2022/06/06 08:28:08;;;;;;;6.03;5.53;;;;;;;19.83;91.87;101041.31;5014210;28;20470;-47
2022/06/06 08:30:36;;;;;;;9.30;5.50;;;;;;;19.68;91.69;101043.81;5014332;28;20432;-44
2022/06/06 08:33:04;;;;;;;5.53;5.13;;;;;;;19.57;90.96;101042.81;5019873;28;20435;-47
2022/06/06 08:35:42;;;;;;;5.40;4.97;;;;;;;19.69;92.99;101045.41;5015088;28;20437;-47
2022/06/06 08:38:25;;;;;;;5.57;5.10;;;;;;;19.64;89.04;101046.19;5016131;28;20474;-46
2022/06/06 08:41:22;;;;;;;4.47;4.17;;;;;;;19.52;90.09;101060.88;5014185;28;20425;-48
2022/06/06 08:44:02;;;;;;;4.90;4.50;;;;;;;19.35;88.55;101072.47;5014565;28;20447;-44
2022/06/06 08:46:42;;;;;;;5.37;4.97;;;;;;;19.08;90.34;101073.38;5014756;28;20464;-45
2022/06/06 08:52:22;;;;;;;3.87;3.67;;;;;;;18.72;93.29;101074.63;5017912;28;20435;-50
2022/06/06 08:55:31;;;;;;;4.10;3.87;;;;;;;18.65;93.74;101090.16;5029040;28;20445;-46
2022/06/06 08:58:25;;;;;;;3.53;3.33;;;;;;;18.48;92.96;101092.78;4950880;28;20985;-49
2022/06/06 09:01:07;;;;;;;3.90;3.70;;;;;;;18.23;92.02;101103.03;5010716;28;20448;-44
2022/06/06 09:04:14;;;;;;;4.63;4.27;;;;;;;18.05;93.97;101109.41;5023698;28;20479;-45
2022/06/06 09:07:35;;;;;;;5.57;5.07;;;;;;;18.13;96.77;101114.44;5014593;28;20452;-47
2022/06/06 09:10:53;;;;;;;6.00;5.40;;;;;;;18.30;95.75;101102.91;5010681;28;20459;-44
2022/06/06 09:13:52;;;;;;;5.63;5.23;;;;;;;18.31;94.45;101104.56;5020687;28;20797;-47
2022/06/06 09:16:52;;;;;;;5.80;5.30;;;;;;;18.26;93.87;101116.06;5011400;28;20478;-50
2022/06/06 09:19:46;;;;;;;5.60;5.17;;;;;;;18.17;93.96;101114.78;4990703;28;20473;-44
2022/06/06 09:22:47;;;;;;;5.57;5.17;;;;;;;18.07;94.38;101123.47;5025409;28;20432;-45
2022/06/06 09:25:34;;;;;;;4.70;4.40;;;;;;;17.95;95.20;101119.19;5015942;28;20455;-44
2022/06/06 09:28:38;;;;;;;5.90;5.50;;;;;;;17.67;93.06;101119.88;5011179;28;20482;-48
2022/06/06 09:31:43;;;;;;;5.20;4.90;;;;;;;17.59;95.83;101129.13;5019033;28;20427;-45
2022/06/06 09:34:47;;;;;;;5.83;5.33;;;;;;;17.55;97.23;101129.81;5020744;28;20433;-45
2022/06/06 09:37:33;;;;;;;7.07;5.87;;;;;;;17.39;97.18;101139.38;5025763;28;20784;-44
2022/06/06 09:40:16;;;;;;;5.37;4.97;;;;;;;17.42;97.29;101141.59;5022958;28;20432;-46
2022/06/06 09:43:05;;;;;;;6.70;6.00;;;;;;;17.64;96.76;101131.13;5005992;28;20428;-46
2022/06/06 09:45:35;;;;;;;5.50;5.10;;;;;;;17.87;96.03;101143.78;5023494;28;20438;-48
2022/06/06 09:48:29;;;;;;;6.90;6.20;;;;;;;17.92;92.26;101142.03;5026405;28;20456;-44
2022/06/06 09:51:28;;;;;;;6.60;6.10;;;;;;;17.82;90.31;101151.78;5012046;28;20434;-44
2022/06/06 10:00:27;;;;;;;6.80;6.30;;;;;;;17.96;92.10;101159.41;5010308;28;20448;-44
2022/06/06 10:03:38;;;;;;;7.23;6.50;;;;;;;18.07;91.44;101152.38;5006284;28;20433;-45
2022/06/06 10:06:32;;;;;;;6.90;6.40;;;;;;;18.14;89.56;101156.59;5013499;28;20456;-44
2022/06/06 10:09:37;;;;;;;7.80;7.00;;;;;;;18.09;87.55;101171.84;5028652;28;21003;-45
2022/06/06 10:12:29;;;;;;;6.87;6.27;;;;;;;18.01;86.96;101164.91;5021924;28;20438;-44
2022/06/06 10:15:22;;;;;;;6.70;6.20;;;;;;;18.04;88.12;101175.22;5020431;28;20429;-45
2022/06/06 10:18:11;;;;;;;10.30;7.73;;;;;;;17.87;87.08;101171.59;5016891;28;20483;-46
2022/06/06 10:20:53;;;;;;;7.70;7.00;;;;;;;17.77;88.42;101184.03;5030159;28;20440;-52
2022/06/06 10:23:36;;;;;;;7.50;6.90;;;;;;;17.91;90.47;101178.19;5033808;28;20801;-47
2022/06/06 10:26:40;;;;;;;7.73;7.03;;;;;;;18.20;89.98;101179.09;5033174;28;20818;-45
2022/06/06 10:30:10;;;;;;;7.63;6.93;;;;;;;18.58;86.44;101182.13;5033136;28;20463;-47
2022/06/06 10:32:42;;;;;;;7.40;6.90;;;;;;;19.44;87.71;101177.59;5015847;28;20776;-50
2022/06/06 10:35:21;;;;;;;7.30;6.43;;;;;;;20.15;80.22;101174.94;5013537;28;20779;-49
2022/06/06 10:38:10;;;;;;;7.67;7.17;;;;;;;20.50;79.11;101171.94;5013011;28;20467;-45
2022/06/06 10:41:01;;;;;;;7.10;6.60;;;;;;;21.13;73.29;101175.94;5012344;28;20413;-46
2022/06/06 10:43:43;;;;;;;6.03;5.53;;;;;;;21.24;74.74;101178.50;5013052;28;20801;-49
2022/06/06 10:46:17;;;;;;;7.97;7.17;;;;;;;21.04;73.66;101182.84;5012745;28;20519;-48
2022/06/06 10:49:12;;;;;;;7.03;6.33;;;;;;;20.85;73.11;101172.34;5012308;28;20497;-47
2022/06/06 10:52:30;;;;;;;7.37;6.77;;;;;;;21.46;71.47;101186.56;5012723;28;20417;-44
2022/06/06 10:55:50;;;;;;;8.20;7.40;;;;;;;21.81;69.81;101180.63;5012381;28;20494;-44
2022/06/06 10:58:57;;;;;;;7.63;7.03;;;;;;;22.08;70.32;101175.94;4988150;28;20488;-45
2022/06/06 11:02:11;;;;;;;8.40;7.43;;;;;;;21.65;66.82;101176.97;5012457;28;20432;-46
2022/06/06 11:05:00;;;;;;;6.20;5.60;;;;;;;21.26;66.97;101168.22;5012274;28;20466;-47
2022/06/06 11:08:15;;;;;;;7.00;6.40;;;;;;;21.36;67.62;101164.75;5011540;28;20460;-46
2022/06/06 11:11:17;;;;;;;6.97;6.37;;;;;;;21.73;67.75;101172.97;4951504;29;20876;-45
2022/06/06 11:13:59;;;;;;;5.50;5.07;;;;;;;21.83;65.50;101160.25;4951820;29;20428;-51
2022/06/06 11:16:59;;;;;;;9.00;6.57;;;;;;;22.10;66.15;101159.41;4998573;28;20452;-48
2022/06/06 11:19:58;;;;;;;7.47;6.97;;;;;;;22.54;68.40;101166.16;5011499;28;20504;-48
2022/06/06 11:22:32;;;;;;;9.50;8.43;;;;;;;22.71;65.53;101158.63;5011727;28;20430;-44
2022/06/06 11:25:10;;;;;;;7.67;7.10;;;;;;;23.00;64.17;101164.44;5012253;28;20428;-47
2022/06/06 11:28:13;;;;;;;8.63;8.03;;;;;;;23.44;62.83;101162.09;5011830;28;20541;-50
2022/06/06 11:31:16;;;;;;;7.73;7.23;;;;;;;23.53;63.72;101163.19;5012094;28;20420;-47
2022/06/06 11:34:20;;;;;;;7.60;7.03;;;;;;;23.26;59.40;101159.88;5012345;28;20437;-49
2022/06/06 11:37:13;;;;;;;6.77;6.33;;;;;;;23.30;60.21;101161.75;5011662;28;20454;-50
2022/06/06 11:40:26;;;;;;;6.70;6.30;;;;;;;23.72;58.14;101150.66;5011583;28;20472;-47
2022/06/06 11:43:25;;;;;;;7.60;7.00;;;;;;;23.89;58.88;101156.63;4970766;28;20445;-49
2022/06/06 11:46:14;;;;;;;7.17;6.70;;;;;;;24.13;55.11;101157.69;4978267;28;20460;-50
2022/06/06 11:49:10;;;;;;;7.43;6.90;;;;;;;24.17;57.52;101153.31;5010668;28;20479;-46
2022/06/06 11:52:04;;;;;;;7.83;7.23;;;;;;;24.92;59.44;101153.31;5011838;28;20436;-49
2022/06/06 11:55:04;;;;;;;7.90;7.27;;;;;;;24.91;54.79;101154.44;5012015;28;20787;-47
2022/06/06 11:58:02;;;;;;;6.70;6.30;;;;;;;25.08;58.79;101166.59;5011356;28;20541;-48
2022/06/06 12:00:43;;;;;;;8.90;7.93;;;;;;;24.40;55.38;101151.88;5011757;28;20476;-47
2022/06/06 12:03:36;;;;;;;7.37;6.97;;;;;;;24.38;52.18;101151.34;5011958;28;20436;-47
2022/06/06 12:06:25;;;;;;;7.97;7.37;;;;;;;24.11;54.63;101157.16;5011860;28;20458;-44
2022/06/06 12:09:06;;;;;;;7.27;6.63;;;;;;;24.21;59.80;101159.03;5011258;28;20464;-44
2022/06/06 12:12:03;;;;;;;7.93;7.40;;;;;;;24.37;53.44;101149.72;5011832;28;20450;-50
2022/06/06 12:15:03;;;;;;;7.87;7.37;;;;;;;24.35;52.18;101157.34;5011767;28;20437;-46
2022/06/06 12:17:50;;;;;;;7.27;6.60;;;;;;;23.73;54.58;101162.34;4978611;28;20464;-45
2022/06/06 12:20:35;;;;;;;8.60;7.80;;;;;;;23.50;57.82;101169.19;5011456;28;20511;-47
2022/06/06 12:23:16;;;;;;;8.47;7.70;;;;;;;23.52;59.62;101161.53;5011602;28;20436;-44
2022/06/06 12:26:11;;;;;;;8.47;7.67;;;;;;;23.19;56.61;101153.84;5011809;28;20814;-49
2022/06/06 12:29:19;;;;;;;8.30;7.70;;;;;;;23.20;57.47;101148.16;5011281;28;20466;-47
2022/06/06 12:31:58;;;;;;;7.90;7.23;;;;;;;22.99;59.64;101157.38;5011641;28;20432;-48
2022/06/06 12:34:36;;;;;;;7.80;7.20;;;;;;;22.93;60.92;101156.56;5011611;28;20965;-49
2022/06/06 12:37:11;;;;;;;8.27;7.60;;;;;;;23.31;60.08;101147.06;5011597;28;20453;-45
2022/06/06 12:39:52;;;;;;;8.40;7.63;;;;;;;23.67;59.23;101150.66;5010725;28;20472;-46
2022/06/06 12:42:32;;;;;;;7.73;7.00;;;;;;;23.96;58.92;101151.69;5011534;28;20793;-47
2022/06/06 12:45:35;;;;;;;8.20;7.70;;;;;;;24.12;52.98;101156.06;5011584;28;20433;-49
2022/06/06 12:48:36;;;;;;;9.60;8.60;;;;;;;23.73;52.31;101148.75;5010999;28;20460;-46